Time;durP1;ratioP1;P1;durP2;ratioP2;P2;SDS_P1;SDS_P2;PMS_P1;PMS_P2;Temp;Humidity;BMP_temperature;BMP_pressure;BME280_temperature;BME280_humidity;BME280_pressure;Samples;Min_cycle;Max_cycle;Signal;HPM_P1;HPM_P2
2022/10/10 00:01:36;;;;;;;7.30;6.63;;;;;;;11.98;nan;99584.19;4978012;28;20200;-75
2022/10/10 00:04:03;;;;;;;7.78;5.90;;;;;;;11.94;nan;99588.84;4976919;28;20184;-75
2022/10/10 00:06:32;;;;;;;6.88;6.05;;;;;;;11.90;nan;99586.53;4975952;28;20184;-75
2022/10/10 00:08:58;;;;;;;6.35;5.75;;;;;;;11.88;nan;99576.13;4976755;28;20220;-75
2022/10/10 00:11:27;;;;;;;9.70;6.37;;;;;;;11.88;nan;99584.03;4977202;28;20203;-75
2022/10/10 00:13:53;;;;;;;8.10;7.15;;;;;;;11.92;nan;99587.28;4973304;28;20440;-75
2022/10/10 00:16:20;;;;;;;6.10;5.50;;;;;;;11.95;nan;99587.06;4974429;28;20223;-75
2022/10/10 00:18:46;;;;;;;7.00;5.82;;;;;;;11.96;nan;99580.81;4970893;28;20267;-75
2022/10/10 00:21:14;;;;;;;11.10;6.97;;;;;;;11.95;nan;99585.25;4974290;28;20211;-75
2022/10/10 00:23:40;;;;;;;8.80;5.72;;;;;;;11.98;nan;99572.84;4975133;28;20256;-75
2022/10/10 00:26:06;;;;;;;8.47;6.10;;;;;;;12.01;nan;99577.88;4974000;28;20664;-75
2022/10/10 00:28:39;;;;;;;7.97;6.03;;;;;;;12.04;nan;99581.13;4976155;28;20211;-75
2022/10/10 00:31:07;;;;;;;8.07;5.90;;;;;;;12.09;nan;99578.19;4974590;28;20193;-75
2022/10/10 00:33:32;;;;;;;7.63;6.05;;;;;;;12.10;nan;99572.00;4975793;28;20622;-75
2022/10/10 00:35:58;;;;;;;6.73;5.63;;;;;;;12.08;nan;99568.63;4974695;28;20291;-75
2022/10/10 00:38:27;;;;;;;8.10;6.73;;;;;;;12.07;nan;99564.28;4972847;28;20179;-75
2022/10/10 00:40:55;;;;;;;6.47;5.80;;;;;;;12.05;nan;99574.09;4977315;28;20195;-75
2022/10/10 00:43:23;;;;;;;6.72;5.80;;;;;;;12.01;nan;99568.19;4973063;28;20669;-75
2022/10/10 00:45:49;;;;;;;7.85;6.57;;;;;;;12.01;nan;99573.44;4974785;28;20184;-75
2022/10/10 00:48:20;;;;;;;7.15;6.40;;;;;;;11.96;nan;99565.03;4977732;28;20227;-75
2022/10/10 00:51:01;;;;;;;8.20;6.40;;;;;;;11.92;nan;99553.06;4975411;28;20291;-75
2022/10/10 00:53:32;;;;;;;9.73;7.07;;;;;;;11.88;nan;99556.84;4974002;28;20772;-75
2022/10/10 00:55:58;;;;;;;8.27;6.82;;;;;;;11.87;nan;99555.16;4974466;28;20258;-75
2022/10/10 00:58:28;;;;;;;9.88;7.18;;;;;;;11.89;nan;99551.47;4972735;28;20199;-75
2022/10/10 01:00:54;;;;;;;7.63;6.05;;;;;;;11.93;nan;99560.00;4973875;28;20263;-75
2022/10/10 01:03:20;;;;;;;7.03;6.07;;;;;;;11.93;nan;99555.56;4973914;28;20860;-76
2022/10/10 01:05:48;;;;;;;9.27;6.60;;;;;;;11.93;nan;99558.19;4975671;28;20193;-75
2022/10/10 01:08:15;;;;;;;7.57;5.78;;;;;;;11.92;nan;99551.25;4973895;28;20208;-75
2022/10/10 01:11:04;;;;;;;7.40;5.63;;;;;;;11.92;nan;99553.06;4974840;28;20823;-75
2022/10/10 01:13:58;;;;;;;9.07;6.43;;;;;;;11.91;nan;99557.47;4974620;28;20208;-75
2022/10/10 01:16:30;;;;;;;7.15;6.55;;;;;;;11.94;nan;99548.53;4976814;28;20192;-75
2022/10/10 01:19:12;;;;;;;5.85;5.25;;;;;;;11.95;nan;99553.66;4974413;28;20189;-75
2022/10/10 01:21:49;;;;;;;7.40;5.72;;;;;;;11.96;nan;99549.25;4973871;28;20201;-75
2022/10/10 01:24:56;;;;;;;6.70;5.45;;;;;;;11.99;nan;99553.44;4974702;28;20191;-75
2022/10/10 01:27:40;;;;;;;7.88;6.25;;;;;;;12.01;nan;99546.28;4911334;29;20733;-76
2022/10/10 01:30:10;;;;;;;12.73;6.45;;;;;;;12.01;nan;99541.03;4972046;28;20219;-75
2022/10/10 01:33:05;;;;;;;8.13;5.85;;;;;;;12.00;nan;99545.47;4974159;28;20231;-75
2022/10/10 01:35:45;;;;;;;5.88;5.20;;;;;;;11.95;nan;99547.56;4977670;28;20188;-75
2022/10/10 01:38:28;;;;;;;6.65;5.68;;;;;;;11.95;nan;99539.66;4974808;28;20557;-75
2022/10/10 01:41:14;;;;;;;6.30;5.28;;;;;;;11.95;nan;99542.31;4977698;28;20576;-76
2022/10/10 01:43:41;;;;;;;6.20;4.70;;;;;;;11.91;nan;99540.84;4982746;28;20687;-75
2022/10/10 01:46:12;;;;;;;7.78;6.65;;;;;;;11.86;nan;99543.81;4973801;28;20226;-75
2022/10/10 01:48:38;;;;;;;11.80;6.82;;;;;;;11.80;nan;99540.69;4975800;28;20246;-75
2022/10/10 01:51:25;;;;;;;9.48;5.78;;;;;;;11.75;nan;99541.03;4977396;28;20191;-76
2022/10/10 01:54:16;;;;;;;9.23;6.15;;;;;;;11.71;nan;99540.41;4977529;28;20369;-75
2022/10/10 01:56:59;;;;;;;7.95;6.57;;;;;;;11.71;nan;99545.66;4976396;28;20203;-75
2022/10/10 01:59:45;;;;;;;6.30;5.63;;;;;;;11.72;nan;99546.53;4977922;28;20227;-75
2022/10/10 02:02:33;;;;;;;8.20;5.93;;;;;;;11.75;nan;99538.41;4976630;28;21040;-75
2022/10/10 02:05:03;;;;;;;8.05;5.75;;;;;;;11.78;nan;99542.63;4977387;28;20195;-75
2022/10/10 02:07:38;;;;;;;6.00;5.40;;;;;;;11.80;nan;99538.94;4980679;28;20785;-75
2022/10/10 02:10:07;;;;;;;6.47;5.78;;;;;;;11.84;nan;99540.41;4980049;28;20628;-75
2022/10/10 02:12:35;;;;;;;6.50;5.68;;;;;;;11.87;nan;99539.38;4977327;28;20212;-75
2022/10/10 02:15:12;;;;;;;8.18;5.15;;;;;;;11.90;nan;99544.41;4980319;28;20755;-75
2022/10/10 02:17:41;;;;;;;9.13;5.18;;;;;;;11.94;nan;99540.63;4977686;28;20377;-75
2022/10/10 02:20:12;;;;;;;5.45;4.78;;;;;;;11.99;nan;99542.91;4990058;28;20184;-75
2022/10/10 02:22:43;;;;;;;7.85;5.75;;;;;;;12.02;nan;99538.31;4973247;28;20957;-75
2022/10/10 02:25:09;;;;;;;6.28;5.68;;;;;;;12.01;nan;99533.97;4976392;28;20188;-75
2022/10/10 02:27:47;;;;;;;9.57;5.30;;;;;;;12.02;nan;99525.13;4975597;28;21022;-75
2022/10/10 02:30:17;;;;;;;4.57;4.18;;;;;;;12.06;nan;99531.00;4977744;28;20243;-75
2022/10/10 02:32:50;;;;;;;7.30;5.65;;;;;;;12.09;nan;99533.44;4975991;28;20559;-75
2022/10/10 02:35:22;;;;;;;5.95;5.35;;;;;;;12.12;nan;99525.31;4977600;28;20686;-74
2022/10/10 02:37:48;;;;;;;7.60;6.40;;;;;;;12.11;nan;99532.38;4973956;28;20180;-75
2022/10/10 02:40:37;;;;;;;7.68;6.15;;;;;;;12.11;nan;99527.09;4979003;28;20251;-75
2022/10/10 02:43:06;;;;;;;7.97;6.32;;;;;;;12.11;nan;99532.38;4972647;28;20216;-75
2022/10/10 02:45:33;;;;;;;5.88;4.97;;;;;;;12.13;nan;99540.16;4975433;28;20188;-75
2022/10/10 02:48:01;;;;;;;6.78;5.93;;;;;;;12.13;nan;99532.28;4972920;28;20908;-75
2022/10/10 02:50:28;;;;;;;5.25;4.72;;;;;;;12.12;nan;99543.72;4975092;28;20688;-75
2022/10/10 02:52:54;;;;;;;9.55;7.38;;;;;;;12.09;nan;99534.25;4974657;28;20215;-76
2022/10/10 02:55:20;;;;;;;7.63;6.33;;;;;;;12.09;nan;99529.00;4976762;28;20192;-75
2022/10/10 02:57:46;;;;;;;7.50;6.17;;;;;;;12.08;nan;99529.97;4974976;28;20427;-75
2022/10/10 03:00:13;;;;;;;6.47;5.97;;;;;;;12.11;nan;99528.91;4975115;28;20458;-75
2022/10/10 03:02:38;;;;;;;5.97;5.38;;;;;;;12.12;nan;99522.69;4976253;28;20208;-74
2022/10/10 03:05:04;;;;;;;5.33;4.37;;;;;;;12.11;nan;99521.00;4974055;28;20890;-75
2022/10/10 03:07:30;;;;;;;8.97;6.13;;;;;;;12.08;nan;99527.31;4974951;28;20582;-75
2022/10/10 03:09:56;;;;;;;5.47;4.93;;;;;;;12.06;nan;99521.31;4973566;28;20226;-75
2022/10/10 03:12:21;;;;;;;6.15;5.55;;;;;;;12.07;nan;99520.38;4976028;28;20209;-75
2022/10/10 03:14:47;;;;;;;7.50;5.77;;;;;;;12.08;nan;99514.16;4974105;28;20210;-75
2022/10/10 03:17:13;;;;;;;7.47;5.90;;;;;;;12.09;nan;99515.84;4973398;28;20676;-75
2022/10/10 03:19:38;;;;;;;8.88;6.50;;;;;;;12.12;nan;99513.00;4976415;28;20669;-75
2022/10/10 03:22:04;;;;;;;8.60;5.60;;;;;;;12.13;nan;99514.69;4971881;28;20214;-75
2022/10/10 03:24:29;;;;;;;6.87;6.17;;;;;;;12.19;nan;99518.66;4977460;28;20637;-75
2022/10/10 03:26:55;;;;;;;5.97;5.30;;;;;;;12.24;nan;99513.06;4976054;28;20744;-75
2022/10/10 03:29:20;;;;;;;7.00;5.70;;;;;;;12.25;nan;99509.47;4974622;28;20219;-75
2022/10/10 03:31:46;;;;;;;8.87;7.50;;;;;;;12.27;nan;99510.22;4975990;28;20438;-75
2022/10/10 03:34:11;;;;;;;9.87;7.97;;;;;;;12.27;nan;99503.16;4973475;28;20445;-76
2022/10/10 03:36:37;;;;;;;10.30;6.50;;;;;;;12.25;nan;99518.22;4977739;28;20204;-75
2022/10/10 03:39:02;;;;;;;7.60;6.50;;;;;;;12.26;nan;99508.50;4975268;28;20240;-75
2022/10/10 03:41:30;;;;;;;8.23;5.67;;;;;;;12.29;nan;99518.84;4975926;28;20566;-75
2022/10/10 03:43:56;;;;;;;9.20;6.20;;;;;;;12.31;nan;99515.16;4973279;28;20278;-75
2022/10/10 03:46:22;;;;;;;8.00;6.20;;;;;;;12.34;nan;99514.06;4976401;28;20848;-75
2022/10/10 03:48:49;;;;;;;7.10;6.43;;;;;;;12.35;nan;99518.41;4972705;28;20545;-75
2022/10/10 03:51:15;;;;;;;7.33;6.03;;;;;;;12.38;nan;99515.53;4975824;28;20298;-75
2022/10/10 03:53:40;;;;;;;8.17;5.90;;;;;;;12.40;nan;99513.66;4974069;28;20221;-75
2022/10/10 03:56:06;;;;;;;8.23;6.10;;;;;;;12.43;nan;99515.22;4976400;28;20679;-75
2022/10/10 03:58:31;;;;;;;8.10;6.20;;;;;;;12.44;nan;99515.09;4973689;28;20281;-75
2022/10/10 04:00:59;;;;;;;6.97;6.27;;;;;;;12.45;nan;99514.16;4975279;28;20193;-75
2022/10/10 04:03:25;;;;;;;8.35;5.78;;;;;;;12.47;nan;99516.66;4973095;28;20290;-75
2022/10/10 04:05:51;;;;;;;7.57;6.15;;;;;;;12.49;nan;99518.22;4973248;28;20209;-75
2022/10/10 04:08:16;;;;;;;6.10;5.23;;;;;;;12.47;nan;99521.94;4974535;28;20561;-75
2022/10/10 04:10:43;;;;;;;5.70;4.30;;;;;;;12.45;nan;99523.81;4973603;28;20448;-74
2022/10/10 04:13:08;;;;;;;6.22;5.75;;;;;;;12.43;nan;99531.84;4973755;28;20237;-75
2022/10/10 04:15:34;;;;;;;7.17;6.33;;;;;;;12.39;nan;99533.00;4976905;28;20931;-75
2022/10/10 04:18:00;;;;;;;8.70;6.80;;;;;;;12.37;nan;99532.31;4974350;28;20206;-75
2022/10/10 04:20:25;;;;;;;8.40;6.80;;;;;;;12.37;nan;99529.69;4973225;28;20240;-74
2022/10/10 04:22:51;;;;;;;7.90;5.50;;;;;;;12.35;nan;99540.31;4973076;28;20565;-75
2022/10/10 04:25:17;;;;;;;6.77;6.07;;;;;;;12.33;nan;99531.66;4970344;28;20284;-75
2022/10/10 04:27:42;;;;;;;7.70;6.90;;;;;;;12.33;nan;99536.09;4973924;28;20878;-74
2022/10/10 04:30:09;;;;;;;8.10;6.60;;;;;;;12.33;nan;99539.56;4970552;28;20606;-75
2022/10/10 04:32:35;;;;;;;9.88;7.03;;;;;;;12.34;nan;99538.63;5000158;23;20611;-82
2022/10/10 04:35:01;;;;;;;6.53;5.90;;;;;;;12.36;nan;99547.25;4998160;28;20210;-85
2022/10/10 04:37:26;;;;;;;8.03;6.20;;;;;;;12.37;nan;99537.56;5000365;28;21098;-80
2022/10/10 04:39:54;;;;;;;8.10;6.80;;;;;;;12.38;nan;99542.72;4995581;28;20190;-84
2022/10/10 04:42:20;;;;;;;10.05;7.15;;;;;;;12.37;nan;99541.03;4996988;28;20708;-82
2022/10/10 04:44:46;;;;;;;7.70;6.90;;;;;;;12.38;nan;99547.16;4981818;28;20204;-84
2022/10/10 04:47:12;;;;;;;12.40;6.83;;;;;;;12.39;nan;99554.09;4981629;28;20571;-83
2022/10/10 04:49:37;;;;;;;7.80;7.07;;;;;;;12.40;nan;99554.00;4978016;28;20225;-81
2022/10/10 04:52:03;;;;;;;9.53;7.07;;;;;;;12.41;nan;99546.94;4978074;28;20445;-83
2022/10/10 04:54:28;;;;;;;8.83;7.37;;;;;;;12.44;nan;99549.34;4980808;28;20650;-81
2022/10/10 04:56:53;;;;;;;7.93;7.13;;;;;;;12.47;nan;99548.28;4986524;28;20261;-84
2022/10/10 04:59:19;;;;;;;10.67;6.73;;;;;;;12.47;nan;99551.75;4984141;28;20249;-82
2022/10/10 05:01:44;;;;;;;12.50;7.70;;;;;;;12.47;nan;99554.38;4984815;28;20673;-83
2022/10/10 05:04:10;;;;;;;8.10;7.00;;;;;;;12.44;nan;99549.34;4983230;28;20205;-81
2022/10/10 05:06:35;;;;;;;9.88;7.72;;;;;;;12.44;nan;99544.06;4976001;28;20662;-81
2022/10/10 05:09:01;;;;;;;8.50;7.70;;;;;;;12.46;nan;99546.59;4979693;28;20317;-83
2022/10/10 05:11:26;;;;;;;9.73;8.73;;;;;;;12.47;nan;99549.09;4989840;28;20207;-81
2022/10/10 05:13:52;;;;;;;8.40;6.97;;;;;;;12.48;nan;99553.44;4988806;28;20236;-85
2022/10/10 05:16:17;;;;;;;14.37;8.77;;;;;;;12.49;nan;99549.00;4987427;28;20209;-84
2022/10/10 05:18:43;;;;;;;10.30;7.23;;;;;;;12.48;nan;99549.97;4984418;28;20626;-82
2022/10/10 05:21:10;;;;;;;7.57;6.70;;;;;;;12.50;nan;99543.66;4984938;28;20196;-81
2022/10/10 05:23:37;;;;;;;8.15;6.40;;;;;;;12.50;nan;99542.78;4984940;28;20272;-82
2022/10/10 05:26:03;;;;;;;10.57;7.55;;;;;;;12.49;nan;99549.84;4984513;28;20669;-84
2022/10/10 05:28:29;;;;;;;11.75;7.45;;;;;;;12.51;nan;99550.59;4970846;28;20242;-82
2022/10/10 05:30:54;;;;;;;7.63;6.53;;;;;;;12.52;nan;99549.63;4964555;28;20339;-83
2022/10/10 05:33:20;;;;;;;10.63;7.67;;;;;;;12.54;nan;99552.16;4964109;28;20367;-80
2022/10/10 05:35:45;;;;;;;7.70;6.20;;;;;;;12.55;nan;99544.13;4963563;28;20212;-83
2022/10/10 05:38:11;;;;;;;7.83;6.67;;;;;;;12.59;nan;99542.97;4962021;28;20292;-82
2022/10/10 05:40:40;;;;;;;10.07;7.73;;;;;;;12.60;nan;99542.00;4961712;28;20188;-80
2022/10/10 05:43:06;;;;;;;7.57;6.75;;;;;;;12.62;nan;99547.16;4957621;28;20235;-82
2022/10/10 05:45:31;;;;;;;10.40;7.03;;;;;;;12.65;nan;99546.09;4957749;28;20915;-80
2022/10/10 05:47:57;;;;;;;7.50;5.70;;;;;;;12.68;nan;99559.06;4960789;28;20233;-84
2022/10/10 05:50:45;;;;;;;13.10;7.63;;;;;;;12.69;nan;99553.69;4962415;28;20205;-80
2022/10/10 05:53:11;;;;;;;7.25;6.53;;;;;;;12.70;nan;99563.25;4963900;28;20223;-84
2022/10/10 05:55:36;;;;;;;7.80;7.20;;;;;;;12.69;nan;99553.69;4963944;28;20204;-80
2022/10/10 05:58:02;;;;;;;7.17;6.43;;;;;;;12.71;nan;99556.19;4958810;28;20579;-83
2022/10/10 06:00:27;;;;;;;10.77;7.70;;;;;;;12.74;nan;99555.97;4965845;28;20548;-82
2022/10/10 06:02:52;;;;;;;7.80;5.70;;;;;;;12.76;nan;99557.53;4964647;28;20206;-83
2022/10/10 06:05:18;;;;;;;13.53;7.37;;;;;;;12.79;nan;99561.75;4964040;28;20284;-82
2022/10/10 06:07:43;;;;;;;8.83;7.27;;;;;;;12.81;nan;99557.19;4966412;28;20284;-82
2022/10/10 06:10:09;;;;;;;10.30;7.70;;;;;;;12.83;nan;99565.84;4966995;28;20204;-80
2022/10/10 06:12:34;;;;;;;13.23;8.40;;;;;;;12.83;nan;99566.69;4970626;28;20209;-80
2022/10/10 06:15:00;;;;;;;11.00;8.40;;;;;;;12.85;nan;99558.63;4971939;28;20203;-80
2022/10/10 06:17:25;;;;;;;11.37;8.20;;;;;;;12.86;nan;99565.59;4970001;28;20200;-81
2022/10/10 06:19:51;;;;;;;10.03;8.20;;;;;;;12.89;nan;99575.09;4973033;28;20203;-83
2022/10/10 06:22:16;;;;;;;12.67;7.40;;;;;;;12.91;nan;99566.13;4975696;28;20951;-80
2022/10/10 06:24:41;;;;;;;11.80;7.53;;;;;;;12.96;nan;99571.91;4974266;28;20806;-83
2022/10/10 06:27:07;;;;;;;7.50;6.70;;;;;;;12.98;nan;99569.97;4974729;28;20213;-80
2022/10/10 06:29:32;;;;;;;6.93;6.23;;;;;;;13.00;nan;99568.06;4971322;28;20788;-80
2022/10/10 06:31:58;;;;;;;7.60;6.77;;;;;;;13.03;nan;99573.09;4973462;28;20272;-82
2022/10/10 06:34:23;;;;;;;8.77;7.43;;;;;;;13.04;nan;99572.16;4971284;28;20288;-81
2022/10/10 06:36:50;;;;;;;7.57;6.17;;;;;;;13.05;nan;99580.91;4973947;28;20235;-80
2022/10/10 06:39:16;;;;;;;10.00;7.57;;;;;;;13.05;nan;99581.75;4973099;28;20203;-80
2022/10/10 06:41:41;;;;;;;10.77;7.40;;;;;;;13.04;nan;99580.06;4975860;28;20240;-83
2022/10/10 06:44:10;;;;;;;11.45;7.60;;;;;;;13.04;nan;99581.84;4959596;28;20245;-81
2022/10/10 06:46:38;;;;;;;10.45;6.53;;;;;;;13.05;nan;99587.03;4976927;28;20201;-80
2022/10/10 06:49:04;;;;;;;8.65;7.70;;;;;;;13.09;nan;99594.69;4977239;28;20280;-83
2022/10/10 06:51:30;;;;;;;9.47;7.20;;;;;;;13.12;nan;99595.31;4974316;28;20199;-80
2022/10/10 06:53:57;;;;;;;8.57;7.38;;;;;;;13.16;nan;99593.28;4972686;28;20248;-81
2022/10/10 06:56:23;;;;;;;9.45;7.55;;;;;;;13.18;nan;99597.50;4974188;28;20691;-82
2022/10/10 06:58:49;;;;;;;9.70;7.30;;;;;;;13.24;nan;99607.59;4974186;28;20220;-80
2022/10/10 07:01:17;;;;;;;8.43;7.53;;;;;;;13.29;nan;99609.91;4975868;28;20724;-85
2022/10/10 07:03:42;;;;;;;11.27;8.25;;;;;;;13.36;nan;99605.84;4975456;28;20254;-81
2022/10/10 07:06:10;;;;;;;8.30;7.43;;;;;;;13.44;nan;99605.28;4974041;28;20205;-80
2022/10/10 07:08:37;;;;;;;8.63;7.55;;;;;;;13.54;nan;99608.06;4975219;28;20304;-82
2022/10/10 07:11:03;;;;;;;9.38;7.15;;;;;;;13.62;nan;99605.69;4975908;28;20210;-80
2022/10/10 07:13:28;;;;;;;11.00;7.73;;;;;;;13.68;nan;99610.50;4976594;28;20500;-83
2022/10/10 07:15:54;;;;;;;10.33;8.10;;;;;;;13.71;nan;99603.16;4979258;28;20250;-81
2022/10/10 07:18:20;;;;;;;9.33;8.33;;;;;;;13.76;nan;99612.53;4977649;28;20200;-80
2022/10/10 07:20:46;;;;;;;10.45;8.48;;;;;;;13.80;nan;99609.56;4977986;28;20684;-84
2022/10/10 07:23:12;;;;;;;9.50;6.87;;;;;;;13.87;nan;99604.63;4978798;28;20312;-81
2022/10/10 07:25:39;;;;;;;10.47;8.47;;;;;;;13.97;nan;99610.91;4979947;28;20638;-85
2022/10/10 07:28:09;;;;;;;9.27;7.85;;;;;;;14.10;nan;99614.25;4979785;28;20561;-85
2022/10/10 07:30:43;;;;;;;10.77;8.95;;;;;;;14.23;nan;99608.88;4976754;28;20204;-83
2022/10/10 07:33:13;;;;;;;12.15;9.85;;;;;;;14.34;nan;99622.06;4975178;28;20213;-82
2022/10/10 07:35:39;;;;;;;12.05;8.93;;;;;;;14.43;nan;99614.38;4975909;28;20251;-84
2022/10/10 07:38:04;;;;;;;8.13;7.40;;;;;;;14.50;nan;99621.69;4975001;28;20212;-85
2022/10/10 07:40:30;;;;;;;9.93;8.77;;;;;;;14.55;nan;99619.53;4978294;28;20299;-82
2022/10/10 07:42:55;;;;;;;9.93;7.90;;;;;;;14.65;nan;99627.56;4977036;28;20216;-85
2022/10/10 07:45:21;;;;;;;12.03;9.67;;;;;;;14.75;nan;99620.59;4979203;28;20494;-83
2022/10/10 07:47:46;;;;;;;10.90;7.57;;;;;;;14.87;nan;99625.84;4977474;28;20231;-82
2022/10/10 07:50:12;;;;;;;8.67;7.77;;;;;;;14.98;nan;99621.34;4978161;28;20593;-83
2022/10/10 07:52:38;;;;;;;9.00;8.10;;;;;;;15.10;nan;99627.47;4978649;28;20221;-81
2022/10/10 07:55:05;;;;;;;8.73;7.55;;;;;;;15.19;nan;99628.50;4981147;28;20201;-84
2022/10/10 07:57:33;;;;;;;7.93;7.15;;;;;;;15.26;nan;99625.22;4978705;28;20236;-82
2022/10/10 08:00:07;;;;;;;10.98;8.00;;;;;;;15.31;nan;99621.34;4979347;28;20711;-83
2022/10/10 08:02:39;;;;;;;7.75;6.72;;;;;;;15.38;nan;99627.81;4979538;28;20949;-81
2022/10/10 08:05:05;;;;;;;9.27;7.20;;;;;;;15.44;nan;99632.59;4986617;28;20226;-82
2022/10/10 08:07:30;;;;;;;12.77;8.32;;;;;;;15.49;nan;99618.00;4984179;28;20212;-86
2022/10/10 08:09:57;;;;;;;11.63;8.40;;;;;;;15.66;nan;99621.03;4985020;28;20263;-81
2022/10/10 08:12:23;;;;;;;11.17;7.47;;;;;;;16.37;nan;99624.63;4984432;28;20266;-82
2022/10/10 08:14:48;;;;;;;7.47;6.87;;;;;;;17.50;nan;99611.91;4986194;28;20243;-82
2022/10/10 08:17:13;;;;;;;8.50;6.33;;;;;;;18.68;nan;99608.72;4985393;28;20233;-83
2022/10/10 08:19:39;;;;;;;6.63;5.97;;;;;;;19.75;nan;99607.91;4969957;28;21240;-81
2022/10/10 08:22:04;;;;;;;6.10;5.50;;;;;;;20.63;nan;99613.00;4982090;28;20286;-82
2022/10/10 08:24:30;;;;;;;6.90;5.40;;;;;;;21.39;nan;99601.31;4983656;28;20219;-82
2022/10/10 08:26:55;;;;;;;7.40;6.37;;;;;;;22.06;nan;99603.69;4979449;28;20772;-82
2022/10/10 08:29:21;;;;;;;6.63;5.37;;;;;;;22.69;nan;99599.28;4979782;28;20582;-83
2022/10/10 08:31:46;;;;;;;5.87;5.27;;;;;;;23.29;nan;99600.41;4977892;28;20195;-80
2022/10/10 08:34:12;;;;;;;8.67;7.77;;;;;;;23.75;nan;99589.63;4978864;28;20246;-84
2022/10/10 08:36:37;;;;;;;7.37;5.30;;;;;;;24.14;nan;99600.13;4980983;28;20183;-81
2022/10/10 08:39:03;;;;;;;6.27;4.53;;;;;;;24.50;nan;99592.13;4982080;28;20630;-81
2022/10/10 08:41:37;;;;;;;5.33;4.70;;;;;;;24.95;nan;99586.63;4979365;28;20201;-80
2022/10/10 08:44:13;;;;;;;5.23;4.67;;;;;;;25.24;nan;99590.25;4977471;28;20210;-82
2022/10/10 08:46:45;;;;;;;5.80;5.30;;;;;;;25.43;nan;99592.25;4978323;28;20785;-84
2022/10/10 08:49:35;;;;;;;6.10;5.00;;;;;;;25.50;nan;99595.03;4974429;28;20479;-84
2022/10/10 08:52:30;;;;;;;5.53;5.03;;;;;;;25.59;nan;99591.16;4974510;28;20438;-84
2022/10/10 08:55:00;;;;;;;8.07;4.87;;;;;;;26.07;nan;99583.22;4976058;28;20417;-81
2022/10/10 08:57:25;;;;;;;9.53;4.60;;;;;;;26.62;nan;99578.72;4976806;28;20554;-83
2022/10/10 08:59:55;;;;;;;5.50;3.17;;;;;;;27.10;nan;99578.59;4979080;28;20935;-81
2022/10/10 09:02:39;;;;;;;3.90;3.50;;;;;;;27.30;nan;99580.50;4976339;28;20745;-81
2022/10/10 09:05:13;;;;;;;4.50;2.50;;;;;;;27.36;nan;99574.31;4978205;28;21027;-82
2022/10/10 09:07:50;;;;;;;3.73;2.77;;;;;;;26.98;nan;99577.56;4975980;28;20511;-81
2022/10/10 09:10:41;;;;;;;2.87;2.27;;;;;;;26.54;nan;99578.06;4982892;28;20433;-82
2022/10/10 09:13:37;;;;;;;2.77;1.93;;;;;;;26.27;nan;99578.78;4994717;28;20430;-81
2022/10/10 09:16:11;;;;;;;5.43;2.33;;;;;;;25.96;nan;99583.78;4983086;28;20920;-81
2022/10/10 09:18:45;;;;;;;1.90;1.80;;;;;;;25.69;nan;99577.38;4981801;28;20762;-82
2022/10/10 09:21:11;;;;;;;3.83;2.10;;;;;;;25.51;nan;99580.53;4982362;28;21021;-82
2022/10/10 09:23:53;;;;;;;2.97;2.30;;;;;;;25.10;nan;99591.94;4981111;28;20451;-80
2022/10/10 09:26:25;;;;;;;2.83;1.77;;;;;;;24.70;nan;99594.22;4931073;28;20467;-84
2022/10/10 09:29:22;;;;;;;2.60;1.80;;;;;;;24.21;nan;99597.50;4983014;28;20577;-85
2022/10/10 09:31:53;;;;;;;2.17;1.60;;;;;;;23.83;nan;99594.91;4979796;28;20417;-82
2022/10/10 09:34:38;;;;;;;2.00;1.77;;;;;;;23.54;nan;99591.13;4981514;28;20450;-83
2022/10/10 09:37:12;;;;;;;4.47;1.93;;;;;;;23.35;nan;99592.47;4985940;28;20439;-87
2022/10/10 09:39:42;;;;;;;2.40;1.73;;;;;;;23.18;nan;99594.47;4985418;28;20425;-84
2022/10/10 09:42:14;;;;;;;2.63;1.97;;;;;;;23.10;nan;99593.69;4983925;28;20807;-83
2022/10/10 09:44:40;;;;;;;2.87;1.97;;;;;;;22.93;nan;99598.31;4981643;28;20421;-82
2022/10/10 09:47:06;;;;;;;3.20;2.23;;;;;;;22.89;nan;99594.31;4984995;28;20408;-84
2022/10/10 09:49:33;;;;;;;2.67;1.73;;;;;;;22.85;nan;99595.69;4987270;28;20882;-84
2022/10/10 09:52:02;;;;;;;3.83;2.13;;;;;;;22.89;nan;99595.13;4983407;28;20738;-83
2022/10/10 09:54:27;;;;;;;6.20;2.07;;;;;;;22.98;nan;99595.97;4983198;28;20434;-82
2022/10/10 09:56:56;;;;;;;2.20;1.50;;;;;;;23.04;nan;99589.06;4988019;28;20437;-85
2022/10/10 09:59:44;;;;;;;1.83;1.53;;;;;;;23.03;nan;99587.38;4986237;28;20222;-82
2022/10/10 10:02:28;;;;;;;2.50;1.60;;;;;;;23.00;nan;99588.56;4988946;28;20439;-82
2022/10/10 10:04:54;;;;;;;5.73;2.30;;;;;;;22.96;nan;99582.75;4981970;28;20491;-84
2022/10/10 10:07:25;;;;;;;2.23;1.90;;;;;;;22.95;nan;99586.41;4985223;28;20431;-84
2022/10/10 10:09:54;;;;;;;3.73;1.80;;;;;;;22.94;nan;99584.72;4987830;28;20956;-83
2022/10/10 10:12:30;;;;;;;4.10;1.83;;;;;;;22.93;nan;99584.91;4986345;28;20442;-83
2022/10/10 10:15:04;;;;;;;2.40;2.20;;;;;;;22.94;nan;99589.25;4988777;28;21298;-84
2022/10/10 10:17:29;;;;;;;1.60;1.50;;;;;;;22.99;nan;99586.91;4988135;28;20415;-82
2022/10/10 10:19:55;;;;;;;3.47;2.10;;;;;;;23.14;nan;99581.59;4990805;28;20549;-84
2022/10/10 10:22:32;;;;;;;2.03;1.83;;;;;;;23.29;nan;99584.34;4987199;28;20211;-83
2022/10/10 10:25:18;;;;;;;4.53;2.20;;;;;;;23.37;nan;99585.09;4987515;28;20191;-85
2022/10/10 10:27:44;;;;;;;4.70;2.20;;;;;;;23.39;nan;99593.78;4988987;28;20434;-83
2022/10/10 10:30:23;;;;;;;2.73;2.00;;;;;;;23.34;nan;99590.00;4989251;28;20480;-83
2022/10/10 10:33:24;;;;;;;3.73;2.10;;;;;;;23.23;nan;99598.47;5031006;23;20192;-79
2022/10/10 10:35:58;;;;;;;3.13;2.27;;;;;;;23.16;nan;99585.75;4917500;28;20447;-79
2022/10/10 10:38:36;;;;;;;2.57;2.13;;;;;;;23.22;nan;99599.44;4979653;28;20393;-77
2022/10/10 10:41:25;;;;;;;5.20;2.27;;;;;;;23.26;nan;99596.25;4984638;28;20449;-77
2022/10/10 10:44:10;;;;;;;5.47;2.13;;;;;;;23.29;nan;99597.72;4986469;28;20520;-78
2022/10/10 10:46:44;;;;;;;2.60;1.93;;;;;;;23.29;nan;99597.72;4985249;28;20393;-77
2022/10/10 10:49:15;;;;;;;4.77;1.70;;;;;;;23.32;nan;99602.72;4984928;28;20469;-77
2022/10/10 10:52:02;;;;;;;3.67;2.13;;;;;;;23.40;nan;99598.13;4984336;28;20821;-77
2022/10/10 10:54:50;;;;;;;3.23;1.80;;;;;;;23.47;nan;99598.25;4984536;28;20474;-77
2022/10/10 10:57:28;;;;;;;3.70;2.10;;;;;;;23.53;nan;99600.19;4984305;28;20430;-79
2022/10/10 11:00:02;;;;;;;2.70;1.90;;;;;;;23.54;nan;99596.50;4986771;28;20409;-77
2022/10/10 11:02:33;;;;;;;3.00;2.30;;;;;;;23.44;nan;99589.72;4989121;28;20432;-77
2022/10/10 11:05:26;;;;;;;2.30;1.83;;;;;;;23.39;nan;99601.84;4988619;28;20428;-77
2022/10/10 11:08:07;;;;;;;4.70;2.03;;;;;;;23.36;nan;99586.13;4989460;28;20518;-77
2022/10/10 11:10:48;;;;;;;5.63;2.10;;;;;;;23.28;nan;99580.81;4986514;28;20412;-77
2022/10/10 11:13:27;;;;;;;8.77;2.00;;;;;;;23.27;nan;99592.53;4986078;28;20438;-77
2022/10/10 11:15:58;;;;;;;4.10;2.20;;;;;;;23.23;nan;99585.88;4990155;28;20409;-76
2022/10/10 11:18:32;;;;;;;3.87;2.13;;;;;;;23.22;nan;99586.06;4986054;28;20570;-77
2022/10/10 11:21:04;;;;;;;4.83;2.13;;;;;;;23.21;nan;99585.22;4985889;28;20401;-76
2022/10/10 11:23:46;;;;;;;6.53;2.10;;;;;;;23.14;nan;99579.78;4984987;28;20481;-77
2022/10/10 11:26:36;;;;;;;4.60;2.20;;;;;;;23.06;nan;99574.47;4985715;28;20710;-77
2022/10/10 11:29:20;;;;;;;10.40;1.90;;;;;;;23.04;nan;99576.50;4985730;28;20452;-80
2022/10/10 11:32:07;;;;;;;4.47;3.07;;;;;;;23.05;nan;99572.78;4985997;28;20852;-78
2022/10/10 11:34:40;;;;;;;2.43;1.90;;;;;;;23.14;nan;99576.22;4987180;28;20428;-78
2022/10/10 11:37:15;;;;;;;3.20;1.83;;;;;;;23.24;nan;99574.16;4984236;28;20449;-78
2022/10/10 11:40:04;;;;;;;2.30;2.10;;;;;;;23.30;nan;99572.59;4983964;28;20412;-77
2022/10/10 11:42:41;;;;;;;5.13;1.93;;;;;;;23.36;nan;99566.53;4985680;28;20939;-79
2022/10/10 11:45:42;;;;;;;3.90;2.60;;;;;;;23.43;nan;99572.81;4988992;28;20461;-80
2022/10/10 11:48:16;;;;;;;5.23;2.73;;;;;;;23.45;nan;99567.28;4990203;28;20444;-80
2022/10/10 11:50:43;;;;;;;4.77;2.20;;;;;;;23.43;nan;99570.13;4998187;28;20603;-78
2022/10/10 11:53:20;;;;;;;3.37;2.50;;;;;;;23.40;nan;99557.91;4987810;28;20454;-77
2022/10/10 11:56:13;;;;;;;7.37;2.80;;;;;;;23.42;nan;99555.06;4985076;28;20833;-78
2022/10/10 11:59:00;;;;;;;3.90;2.20;;;;;;;23.46;nan;99552.84;4985270;28;20393;-78
2022/10/10 12:01:41;;;;;;;3.83;2.23;;;;;;;23.54;nan;99553.59;4984740;28;20421;-79
2022/10/10 12:04:06;;;;;;;5.83;2.10;;;;;;;23.57;nan;99550.56;4984150;28;20994;-79
2022/10/10 12:06:44;;;;;;;7.17;1.87;;;;;;;23.58;nan;99549.53;4982617;28;20452;-78